This is the latest recevied weather packets stored in our database for station/object KD5BIG-13. If no packets are shown the sender has not sent any weather packets the latest 1 day(s).
| Time | Temp. | Humidity | Pressure | Rain* | Wind** | Luminosity | Snow |
|---|---|---|---|---|---|---|---|
| 1778036288 | 23.89° C | 84% | 1014.2 hPa | 0 mm | 0.45 m/s, 212° | 0 W/m² | - |
| 1778035984 | 23.89° C | 84% | 1014.2 hPa | 0 mm | 0.45 m/s, 182° | 0 W/m² | - |
| 1778035682 | 23.89° C | 84% | 1013.9 hPa | 0 mm | 2.24 m/s, 195° | 0 W/m² | - |
| 1778035378 | 23.89° C | 84% | 1013.9 hPa | 0 mm | 0.45 m/s, 186° | 0 W/m² | - |
| 1778035074 | 23.89° C | 84% | 1014 hPa | 0 mm | 0.89 m/s, 143° | 0 W/m² | - |
| 1778034772 | 23.89° C | 84% | 1014.1 hPa | 0 mm | 0.89 m/s, 123° | 0 W/m² | - |
| 1778034468 | 23.89° C | 83% | 1013.8 hPa | 0 mm | 1.34 m/s, 165° | 0 W/m² | - |
| 1778034166 | 23.89° C | 83% | 1013.9 hPa | 0 mm | 0 m/s | 0 W/m² | - |
| 1778033864 | 23.89° C | 83% | 1013.8 hPa | 0 mm | 0.45 m/s, 215° | 0 W/m² | - |
| 1778033560 | 23.89° C | 83% | 1014 hPa | 0 mm | 1.34 m/s, 182° | 0 W/m² | - |
| 1778033257 | 23.89° C | 83% | 1013.6 hPa | 0 mm | 0.89 m/s, 204° | 0 W/m² | - |
| 1778032955 | 23.89° C | 83% | 1013.8 hPa | 0 mm | 1.34 m/s, 196° | 0 W/m² | - |
| 1778032652 | 23.89° C | 83% | 1013.6 hPa | 0 mm | 0 m/s | 0 W/m² | - |
| 1778032350 | 23.89° C | 83% | 1013.5 hPa | 0 mm | 0.45 m/s, 195° | 0 W/m² | - |
| 1778032047 | 23.89° C | 82% | 1013.3 hPa | 0 mm | 1.79 m/s, 185° | 0 W/m² | - |
| 1778031743 | 24.44° C | 82% | 1013.4 hPa | 0 mm | 1.34 m/s, 193° | 0 W/m² | - |
| 1778031440 | 24.44° C | 82% | 1013.4 hPa | 0 mm | 0.89 m/s, 183° | 0 W/m² | - |
| 1778031138 | 24.44° C | 82% | 1013.6 hPa | 0 mm | 1.34 m/s, 177° | 0 W/m² | - |
| 1778030833 | 24.44° C | 82% | 1013.5 hPa | 0 mm | 0.89 m/s, 182° | 0 W/m² | - |
| 1778030531 | 24.44° C | 82% | 1013.5 hPa | 0 mm | 0 m/s | 0 W/m² | - |
| 1778030228 | 24.44° C | 82% | 1013.4 hPa | 0 mm | 0.89 m/s, 216° | 0 W/m² | - |
| 1778029924 | 24.44° C | 82% | 1013.5 hPa | 0 mm | 0.89 m/s, 192° | 0 W/m² | - |
| 1778029623 | 24.44° C | 82% | 1013.5 hPa | 0 mm | 0 m/s | 0 W/m² | - |
| 1778029319 | 24.44° C | 82% | 1013.5 hPa | 0 mm | 0 m/s | 0 W/m² | - |
| 1778029016 | 24.44° C | 82% | 1013.5 hPa | 0 mm | 0 m/s | 0 W/m² | - |
* Rain latest hour (hover to see other rain measurements)
** Current wind speed in m/s (hover to see current wind gust speed)